KORC

Orange City Municipal Airport

Orange City, Iowa, USA
METAR KORC 252215Z AUTO 33006KT 10SM CLR 33/11 A2974 RMK AO2
Observed Flight Rules
May-25 @ 22:15 UTC (8 minutes ago) Visual Flight Rules
Wind Visibility Clouds
330° at 6 knots 10 miles
  • Clear skies
Temperatures Readings
Current 33°C / 91°F
Dewpoint 11°C / 52°F
Humidity 26%
Altimeter 29.74" Hg
Pressure 1007 hPa
Elevation 431
METAR KORC 252215Z AUTO 33006KT 10SM CLR 33/11 A2974 RMK AO2
Observed Flight Rules
May-25 @ 22:15 UTC
(8 minutes ago)
VFR
Wind Visibility
330° at 6 knots 10 miles
Clouds
  • Clear skies
Temperature Dewpoint
33°C / 91°F 11°C / 52°F
Humidity Altimeter Pressure
26% 29.74" Hg 1007 hPa